sensor_id;sensor_type;location;lat;lon;timestamp;P1;durP1;ratioP1;P2;durP2;ratioP2
16822;SDS011;8528;49.976;11.858;2023-10-13T00:01:47;12.50;;;9.40;;
16822;SDS011;8528;49.976;11.858;2023-10-13T00:04:15;14.17;;;8.57;;
16822;SDS011;8528;49.976;11.858;2023-10-13T00:06:41;11.40;;;9.17;;
16822;SDS011;8528;49.976;11.858;2023-10-13T00:09:09;10.97;;;8.50;;
16822;SDS011;8528;49.976;11.858;2023-10-13T00:11:41;10.40;;;8.60;;
16822;SDS011;8528;49.976;11.858;2023-10-13T00:14:11;10.93;;;9.00;;
16822;SDS011;8528;49.976;11.858;2023-10-13T00:16:43;13.43;;;9.97;;
16822;SDS011;8528;49.976;11.858;2023-10-13T00:19:31;14.63;;;8.90;;
16822;SDS011;8528;49.976;11.858;2023-10-13T00:22:10;11.83;;;9.07;;
16822;SDS011;8528;49.976;11.858;2023-10-13T00:24:39;11.10;;;8.83;;
16822;SDS011;8528;49.976;11.858;2023-10-13T00:27:12;16.83;;;10.23;;
16822;SDS011;8528;49.976;11.858;2023-10-13T00:29:57;12.47;;;9.23;;
16822;SDS011;8528;49.976;11.858;2023-10-13T00:32:44;12.50;;;8.80;;
16822;SDS011;8528;49.976;11.858;2023-10-13T00:35:17;12.87;;;9.20;;
16822;SDS011;8528;49.976;11.858;2023-10-13T00:38:04;13.23;;;8.17;;
16822;SDS011;8528;49.976;11.858;2023-10-13T00:40:43;10.73;;;8.20;;
16822;SDS011;8528;49.976;11.858;2023-10-13T00:43:20;10.90;;;8.47;;
16822;SDS011;8528;49.976;11.858;2023-10-13T00:45:53;11.10;;;8.40;;
16822;SDS011;8528;49.976;11.858;2023-10-13T00:48:22;9.50;;;7.87;;
16822;SDS011;8528;49.976;11.858;2023-10-13T00:53:33;13.33;;;8.23;;
16822;SDS011;8528;49.976;11.858;2023-10-13T00:56:03;11.93;;;8.03;;
16822;SDS011;8528;49.976;11.858;2023-10-13T00:58:34;11.57;;;7.17;;
16822;SDS011;8528;49.976;11.858;2023-10-13T01:01:01;10.87;;;8.47;;
16822;SDS011;8528;49.976;11.858;2023-10-13T01:03:45;11.47;;;8.70;;
16822;SDS011;8528;49.976;11.858;2023-10-13T01:06:17;12.00;;;9.47;;
16822;SDS011;8528;49.976;11.858;2023-10-13T01:08:45;12.13;;;9.23;;
16822;SDS011;8528;49.976;11.858;2023-10-13T01:11:20;12.80;;;9.50;;
16822;SDS011;8528;49.976;11.858;2023-10-13T01:13:50;14.83;;;9.63;;
16822;SDS011;8528;49.976;11.858;2023-10-13T01:16:20;12.70;;;10.03;;
16822;SDS011;8528;49.976;11.858;2023-10-13T01:18:53;14.40;;;10.47;;
16822;SDS011;8528;49.976;11.858;2023-10-13T01:21:26;13.87;;;10.03;;
16822;SDS011;8528;49.976;11.858;2023-10-13T01:23:56;11.90;;;9.83;;
16822;SDS011;8528;49.976;11.858;2023-10-13T01:26:23;15.13;;;10.60;;
16822;SDS011;8528;49.976;11.858;2023-10-13T01:28:58;12.43;;;10.07;;
16822;SDS011;8528;49.976;11.858;2023-10-13T01:31:25;12.70;;;9.30;;
16822;SDS011;8528;49.976;11.858;2023-10-13T01:34:03;11.93;;;9.80;;
16822;SDS011;8528;49.976;11.858;2023-10-13T01:36:30;13.07;;;9.03;;
16822;SDS011;8528;49.976;11.858;2023-10-13T01:39:02;11.83;;;9.57;;
16822;SDS011;8528;49.976;11.858;2023-10-13T01:41:29;13.43;;;9.37;;
16822;SDS011;8528;49.976;11.858;2023-10-13T01:43:57;11.00;;;8.77;;
16822;SDS011;8528;49.976;11.858;2023-10-13T01:46:24;12.37;;;9.03;;
16822;SDS011;8528;49.976;11.858;2023-10-13T01:48:51;12.20;;;8.67;;
16822;SDS011;8528;49.976;11.858;2023-10-13T01:51:20;13.67;;;9.43;;
16822;SDS011;8528;49.976;11.858;2023-10-13T01:53:54;9.50;;;8.33;;
16822;SDS011;8528;49.976;11.858;2023-10-13T01:56:24;11.03;;;8.63;;
16822;SDS011;8528;49.976;11.858;2023-10-13T01:58:51;12.67;;;8.53;;
16822;SDS011;8528;49.976;11.858;2023-10-13T02:01:20;13.03;;;8.43;;
16822;SDS011;8528;49.976;11.858;2023-10-13T02:03:57;10.27;;;8.27;;
16822;SDS011;8528;49.976;11.858;2023-10-13T02:06:31;11.13;;;8.17;;
16822;SDS011;8528;49.976;11.858;2023-10-13T02:09:02;10.50;;;8.30;;
16822;SDS011;8528;49.976;11.858;2023-10-13T02:11:37;11.43;;;7.70;;
16822;SDS011;8528;49.976;11.858;2023-10-13T02:14:08;10.20;;;7.50;;
16822;SDS011;8528;49.976;11.858;2023-10-13T02:16:41;10.60;;;8.43;;
16822;SDS011;8528;49.976;11.858;2023-10-13T02:19:08;10.90;;;8.47;;
16822;SDS011;8528;49.976;11.858;2023-10-13T02:21:35;8.87;;;7.80;;
16822;SDS011;8528;49.976;11.858;2023-10-13T02:24:06;12.60;;;8.57;;
16822;SDS011;8528;49.976;11.858;2023-10-13T02:26:40;8.10;;;7.30;;
16822;SDS011;8528;49.976;11.858;2023-10-13T02:29:07;10.03;;;7.33;;
16822;SDS011;8528;49.976;11.858;2023-10-13T02:31:38;11.27;;;7.07;;
16822;SDS011;8528;49.976;11.858;2023-10-13T02:34:06;11.53;;;7.17;;
16822;SDS011;8528;49.976;11.858;2023-10-13T02:36:39;10.07;;;6.93;;
16822;SDS011;8528;49.976;11.858;2023-10-13T02:39:16;8.00;;;6.53;;
16822;SDS011;8528;49.976;11.858;2023-10-13T02:41:43;9.87;;;7.20;;
16822;SDS011;8528;49.976;11.858;2023-10-13T02:44:16;10.03;;;7.20;;
16822;SDS011;8528;49.976;11.858;2023-10-13T02:47:03;7.40;;;6.30;;
16822;SDS011;8528;49.976;11.858;2023-10-13T02:49:40;10.17;;;7.13;;
16822;SDS011;8528;49.976;11.858;2023-10-13T02:52:12;9.63;;;6.63;;
16822;SDS011;8528;49.976;11.858;2023-10-13T02:54:40;12.90;;;7.10;;
16822;SDS011;8528;49.976;11.858;2023-10-13T02:57:14;8.10;;;5.83;;
16822;SDS011;8528;49.976;11.858;2023-10-13T02:59:44;12.27;;;6.70;;
16822;SDS011;8528;49.976;11.858;2023-10-13T03:02:15;9.07;;;6.60;;
16822;SDS011;8528;49.976;11.858;2023-10-13T03:04:57;12.27;;;7.30;;
16822;SDS011;8528;49.976;11.858;2023-10-13T03:07:35;7.83;;;6.17;;
16822;SDS011;8528;49.976;11.858;2023-10-13T03:10:03;9.43;;;6.27;;
16822;SDS011;8528;49.976;11.858;2023-10-13T03:12:37;9.23;;;6.80;;
16822;SDS011;8528;49.976;11.858;2023-10-13T03:15:05;8.07;;;6.67;;
16822;SDS011;8528;49.976;11.858;2023-10-13T03:17:40;11.27;;;6.57;;
16822;SDS011;8528;49.976;11.858;2023-10-13T03:20:11;11.87;;;6.83;;
16822;SDS011;8528;49.976;11.858;2023-10-13T03:22:42;10.40;;;6.97;;
16822;SDS011;8528;49.976;11.858;2023-10-13T03:25:13;8.70;;;7.30;;
16822;SDS011;8528;49.976;11.858;2023-10-13T03:27:50;8.73;;;6.80;;
16822;SDS011;8528;49.976;11.858;2023-10-13T03:30:18;7.67;;;6.40;;
16822;SDS011;8528;49.976;11.858;2023-10-13T03:32:47;9.63;;;6.47;;
16822;SDS011;8528;49.976;11.858;2023-10-13T03:35:21;9.27;;;6.80;;
16822;SDS011;8528;49.976;11.858;2023-10-13T03:37:51;11.70;;;6.60;;
16822;SDS011;8528;49.976;11.858;2023-10-13T03:40:18;12.03;;;6.97;;
16822;SDS011;8528;49.976;11.858;2023-10-13T03:42:46;7.37;;;6.17;;
16822;SDS011;8528;49.976;11.858;2023-10-13T03:48:04;11.77;;;7.47;;
16822;SDS011;8528;49.976;11.858;2023-10-13T03:50:36;9.93;;;6.93;;
16822;SDS011;8528;49.976;11.858;2023-10-13T03:53:04;10.37;;;7.10;;
16822;SDS011;8528;49.976;11.858;2023-10-13T03:55:32;12.70;;;7.53;;
16822;SDS011;8528;49.976;11.858;2023-10-13T03:58:01;8.77;;;6.70;;
16822;SDS011;8528;49.976;11.858;2023-10-13T04:00:29;8.60;;;6.93;;
16822;SDS011;8528;49.976;11.858;2023-10-13T04:02:57;7.83;;;6.70;;
16822;SDS011;8528;49.976;11.858;2023-10-13T04:05:36;8.53;;;7.00;;
16822;SDS011;8528;49.976;11.858;2023-10-13T04:08:12;10.53;;;7.47;;
16822;SDS011;8528;49.976;11.858;2023-10-13T04:11:05;12.60;;;7.70;;
16822;SDS011;8528;49.976;11.858;2023-10-13T04:13:50;10.00;;;8.33;;
16822;SDS011;8528;49.976;11.858;2023-10-13T04:16:50;14.33;;;7.97;;
16822;SDS011;8528;49.976;11.858;2023-10-13T04:19:21;11.73;;;8.70;;
16822;SDS011;8528;49.976;11.858;2023-10-13T04:21:52;10.50;;;8.03;;
16822;SDS011;8528;49.976;11.858;2023-10-13T04:24:25;9.13;;;8.20;;
16822;SDS011;8528;49.976;11.858;2023-10-13T04:27:01;12.97;;;8.73;;
16822;SDS011;8528;49.976;11.858;2023-10-13T04:29:41;13.47;;;8.47;;
16822;SDS011;8528;49.976;11.858;2023-10-13T04:32:37;11.57;;;8.33;;
16822;SDS011;8528;49.976;11.858;2023-10-13T04:35:12;11.27;;;8.50;;
16822;SDS011;8528;49.976;11.858;2023-10-13T04:37:39;9.03;;;7.90;;
16822;SDS011;8528;49.976;11.858;2023-10-13T04:40:25;14.43;;;8.83;;
16822;SDS011;8528;49.976;11.858;2023-10-13T04:42:52;15.90;;;8.97;;
16822;SDS011;8528;49.976;11.858;2023-10-13T04:45:20;10.50;;;8.60;;
16822;SDS011;8528;49.976;11.858;2023-10-13T04:47:59;11.43;;;8.30;;
16822;SDS011;8528;49.976;11.858;2023-10-13T04:50:40;11.60;;;7.93;;
16822;SDS011;8528;49.976;11.858;2023-10-13T04:53:14;15.37;;;8.33;;
16822;SDS011;8528;49.976;11.858;2023-10-13T04:56:01;10.73;;;7.70;;
16822;SDS011;8528;49.976;11.858;2023-10-13T04:58:48;12.53;;;8.10;;
16822;SDS011;8528;49.976;11.858;2023-10-13T05:01:34;11.17;;;7.90;;
16822;SDS011;8528;49.976;11.858;2023-10-13T05:04:36;12.43;;;7.83;;
16822;SDS011;8528;49.976;11.858;2023-10-13T05:07:26;10.70;;;8.60;;
16822;SDS011;8528;49.976;11.858;2023-10-13T05:10:11;14.63;;;7.83;;
16822;SDS011;8528;49.976;11.858;2023-10-13T05:12:57;12.40;;;7.87;;
16822;SDS011;8528;49.976;11.858;2023-10-13T05:15:52;10.03;;;6.73;;
16822;SDS011;8528;49.976;11.858;2023-10-13T05:18:37;11.30;;;7.93;;
16822;SDS011;8528;49.976;11.858;2023-10-13T05:21:23;12.67;;;7.53;;
16822;SDS011;8528;49.976;11.858;2023-10-13T05:24:09;17.37;;;8.30;;
16822;SDS011;8528;49.976;11.858;2023-10-13T05:26:55;10.83;;;7.70;;
16822;SDS011;8528;49.976;11.858;2023-10-13T05:29:44;14.03;;;7.47;;
16822;SDS011;8528;49.976;11.858;2023-10-13T05:32:30;12.30;;;6.73;;
16822;SDS011;8528;49.976;11.858;2023-10-13T05:35:16;13.00;;;6.60;;
16822;SDS011;8528;49.976;11.858;2023-10-13T05:38:05;11.30;;;7.53;;
16822;SDS011;8528;49.976;11.858;2023-10-13T05:43:50;10.63;;;7.40;;
16822;SDS011;8528;49.976;11.858;2023-10-13T05:46:35;15.63;;;7.23;;
16822;SDS011;8528;49.976;11.858;2023-10-13T05:49:06;8.33;;;6.97;;
16822;SDS011;8528;49.976;11.858;2023-10-13T05:52:03;9.80;;;6.90;;
16822;SDS011;8528;49.976;11.858;2023-10-13T05:54:46;14.27;;;7.70;;
16822;SDS011;8528;49.976;11.858;2023-10-13T05:57:32;12.80;;;6.47;;
16822;SDS011;8528;49.976;11.858;2023-10-13T06:00:18;14.57;;;6.60;;
16822;SDS011;8528;49.976;11.858;2023-10-13T06:03:03;15.03;;;7.63;;
16822;SDS011;8528;49.976;11.858;2023-10-13T06:05:49;12.87;;;7.47;;
16822;SDS011;8528;49.976;11.858;2023-10-13T06:08:35;10.83;;;7.70;;
16822;SDS011;8528;49.976;11.858;2023-10-13T06:11:20;11.83;;;7.37;;
16822;SDS011;8528;49.976;11.858;2023-10-13T06:14:06;12.57;;;6.90;;
16822;SDS011;8528;49.976;11.858;2023-10-13T06:16:51;14.13;;;7.23;;
16822;SDS011;8528;49.976;11.858;2023-10-13T06:19:37;10.23;;;7.43;;
16822;SDS011;8528;49.976;11.858;2023-10-13T06:22:25;10.90;;;7.30;;
16822;SDS011;8528;49.976;11.858;2023-10-13T06:25:10;15.03;;;7.50;;
16822;SDS011;8528;49.976;11.858;2023-10-13T06:27:56;11.23;;;6.60;;
16822;SDS011;8528;49.976;11.858;2023-10-13T06:30:42;15.10;;;7.80;;
16822;SDS011;8528;49.976;11.858;2023-10-13T06:33:13;10.23;;;7.23;;
16822;SDS011;8528;49.976;11.858;2023-10-13T06:35:49;11.87;;;7.10;;
16822;SDS011;8528;49.976;11.858;2023-10-13T06:38:17;15.47;;;7.97;;
16822;SDS011;8528;49.976;11.858;2023-10-13T06:40:47;11.73;;;7.13;;
16822;SDS011;8528;49.976;11.858;2023-10-13T06:43:16;15.73;;;6.93;;
16822;SDS011;8528;49.976;11.858;2023-10-13T06:45:43;10.73;;;7.57;;
16822;SDS011;8528;49.976;11.858;2023-10-13T06:48:24;9.37;;;6.33;;
16822;SDS011;8528;49.976;11.858;2023-10-13T06:50:51;9.67;;;6.50;;
16822;SDS011;8528;49.976;11.858;2023-10-13T06:53:19;11.60;;;5.97;;
16822;SDS011;8528;49.976;11.858;2023-10-13T06:55:46;14.10;;;6.60;;
16822;SDS011;8528;49.976;11.858;2023-10-13T06:58:14;14.33;;;6.90;;
16822;SDS011;8528;49.976;11.858;2023-10-13T07:00:41;11.27;;;6.90;;
16822;SDS011;8528;49.976;11.858;2023-10-13T07:03:19;9.67;;;5.80;;
16822;SDS011;8528;49.976;11.858;2023-10-13T07:05:46;14.13;;;5.97;;
16822;SDS011;8528;49.976;11.858;2023-10-13T07:08:14;9.83;;;6.40;;
16822;SDS011;8528;49.976;11.858;2023-10-13T07:10:53;9.37;;;6.10;;
16822;SDS011;8528;49.976;11.858;2023-10-13T07:13:32;8.90;;;6.30;;
16822;SDS011;8528;49.976;11.858;2023-10-13T07:16:04;9.80;;;6.13;;
16822;SDS011;8528;49.976;11.858;2023-10-13T07:18:54;9.67;;;5.97;;
16822;SDS011;8528;49.976;11.858;2023-10-13T07:21:21;10.57;;;6.03;;
16822;SDS011;8528;49.976;11.858;2023-10-13T07:23:55;9.73;;;6.33;;
16822;SDS011;8528;49.976;11.858;2023-10-13T07:26:27;8.67;;;6.03;;
16822;SDS011;8528;49.976;11.858;2023-10-13T07:28:55;8.87;;;6.13;;
16822;SDS011;8528;49.976;11.858;2023-10-13T07:31:22;9.60;;;5.83;;
16822;SDS011;8528;49.976;11.858;2023-10-13T07:33:53;9.60;;;5.87;;
16822;SDS011;8528;49.976;11.858;2023-10-13T07:36:31;10.17;;;5.57;;
16822;SDS011;8528;49.976;11.858;2023-10-13T07:39:05;11.17;;;6.00;;
16822;SDS011;8528;49.976;11.858;2023-10-13T07:41:51;9.03;;;5.60;;
16822;SDS011;8528;49.976;11.858;2023-10-13T07:44:30;9.27;;;5.53;;
16822;SDS011;8528;49.976;11.858;2023-10-13T07:47:00;10.80;;;5.47;;
16822;SDS011;8528;49.976;11.858;2023-10-13T07:49:36;9.63;;;5.20;;
16822;SDS011;8528;49.976;11.858;2023-10-13T07:52:10;9.17;;;5.37;;
16822;SDS011;8528;49.976;11.858;2023-10-13T07:54:49;7.50;;;5.23;;
16822;SDS011;8528;49.976;11.858;2023-10-13T07:57:26;7.23;;;5.17;;
16822;SDS011;8528;49.976;11.858;2023-10-13T07:59:55;9.60;;;5.03;;
16822;SDS011;8528;49.976;11.858;2023-10-13T08:02:37;10.07;;;5.07;;
16822;SDS011;8528;49.976;11.858;2023-10-13T08:05:17;7.37;;;4.70;;
16822;SDS011;8528;49.976;11.858;2023-10-13T08:08:05;7.93;;;5.50;;
16822;SDS011;8528;49.976;11.858;2023-10-13T08:10:40;9.97;;;7.00;;
16822;SDS011;8528;49.976;11.858;2023-10-13T08:13:12;7.63;;;5.90;;
16822;SDS011;8528;49.976;11.858;2023-10-13T08:15:42;8.50;;;5.60;;
16822;SDS011;8528;49.976;11.858;2023-10-13T08:18:16;8.33;;;5.60;;
16822;SDS011;8528;49.976;11.858;2023-10-13T08:21:02;9.17;;;5.27;;
16822;SDS011;8528;49.976;11.858;2023-10-13T08:23:30;10.70;;;6.07;;
16822;SDS011;8528;49.976;11.858;2023-10-13T08:26:21;9.27;;;5.30;;
16822;SDS011;8528;49.976;11.858;2023-10-13T08:29:03;9.30;;;5.27;;
16822;SDS011;8528;49.976;11.858;2023-10-13T08:32:00;10.60;;;6.20;;
16822;SDS011;8528;49.976;11.858;2023-10-13T08:34:31;10.63;;;5.63;;
16822;SDS011;8528;49.976;11.858;2023-10-13T08:37:10;7.80;;;5.23;;
16822;SDS011;8528;49.976;11.858;2023-10-13T08:39:50;7.43;;;5.77;;
16822;SDS011;8528;49.976;11.858;2023-10-13T08:42:49;9.60;;;5.43;;
16822;SDS011;8528;49.976;11.858;2023-10-13T08:45:36;10.20;;;7.70;;
16822;SDS011;8528;49.976;11.858;2023-10-13T08:48:05;9.77;;;6.00;;
16822;SDS011;8528;49.976;11.858;2023-10-13T08:50:43;8.00;;;5.60;;
16822;SDS011;8528;49.976;11.858;2023-10-13T08:56:06;9.33;;;5.80;;
16822;SDS011;8528;49.976;11.858;2023-10-13T08:58:41;10.47;;;5.70;;
16822;SDS011;8528;49.976;11.858;2023-10-13T09:01:34;7.90;;;6.00;;
16822;SDS011;8528;49.976;11.858;2023-10-13T09:04:06;7.43;;;5.47;;
16822;SDS011;8528;49.976;11.858;2023-10-13T09:06:57;6.68;;;5.00;;
16822;SDS011;8528;49.976;11.858;2023-10-13T09:12:25;9.43;;;5.38;;
16822;SDS011;8528;49.976;11.858;2023-10-13T09:15:00;9.32;;;8.20;;
16822;SDS011;8528;49.976;11.858;2023-10-13T09:17:40;23.73;;;14.45;;
16822;SDS011;8528;49.976;11.858;2023-10-13T09:20:17;17.83;;;14.00;;
16822;SDS011;8528;49.976;11.858;2023-10-13T09:23:10;7.00;;;4.90;;
16822;SDS011;8528;49.976;11.858;2023-10-13T09:26:11;8.85;;;5.35;;
16822;SDS011;8528;49.976;11.858;2023-10-13T09:28:40;10.77;;;6.10;;
16822;SDS011;8528;49.976;11.858;2023-10-13T09:31:06;11.32;;;7.78;;
16822;SDS011;8528;49.976;11.858;2023-10-13T09:33:35;12.30;;;8.20;;
16822;SDS011;8528;49.976;11.858;2023-10-13T09:36:03;9.63;;;5.45;;
16822;SDS011;8528;49.976;11.858;2023-10-13T09:38:34;10.57;;;6.03;;
16822;SDS011;8528;49.976;11.858;2023-10-13T09:41:29;8.15;;;4.05;;
16822;SDS011;8528;49.976;11.858;2023-10-13T09:43:59;8.25;;;5.15;;
16822;SDS011;8528;49.976;11.858;2023-10-13T09:46:26;7.00;;;4.47;;
16822;SDS011;8528;49.976;11.858;2023-10-13T09:48:58;8.15;;;4.72;;
16822;SDS011;8528;49.976;11.858;2023-10-13T09:51:35;7.05;;;4.40;;
16822;SDS011;8528;49.976;11.858;2023-10-13T09:57:01;8.77;;;5.05;;
16822;SDS011;8528;49.976;11.858;2023-10-13T09:59:42;8.60;;;5.32;;
16822;SDS011;8528;49.976;11.858;2023-10-13T10:02:19;8.75;;;4.90;;
16822;SDS011;8528;49.976;11.858;2023-10-13T10:04:55;7.15;;;4.60;;
16822;SDS011;8528;49.976;11.858;2023-10-13T10:07:39;10.88;;;4.60;;
16822;SDS011;8528;49.976;11.858;2023-10-13T10:10:06;9.40;;;4.47;;
16822;SDS011;8528;49.976;11.858;2023-10-13T10:12:43;9.18;;;4.80;;
16822;SDS011;8528;49.976;11.858;2023-10-13T10:15:22;8.75;;;4.38;;
16822;SDS011;8528;49.976;11.858;2023-10-13T10:18:01;8.95;;;4.60;;
16822;SDS011;8528;49.976;11.858;2023-10-13T10:23:09;8.02;;;4.93;;
16822;SDS011;8528;49.976;11.858;2023-10-13T10:25:47;7.55;;;4.65;;
16822;SDS011;8528;49.976;11.858;2023-10-13T10:28:19;8.90;;;5.07;;
16822;SDS011;8528;49.976;11.858;2023-10-13T10:30:46;7.85;;;4.57;;
16822;SDS011;8528;49.976;11.858;2023-10-13T10:33:13;8.32;;;4.47;;
16822;SDS011;8528;49.976;11.858;2023-10-13T10:35:45;8.05;;;4.32;;
16822;SDS011;8528;49.976;11.858;2023-10-13T10:38:17;11.45;;;4.68;;
16822;SDS011;8528;49.976;11.858;2023-10-13T10:41:01;8.40;;;4.28;;
16822;SDS011;8528;49.976;11.858;2023-10-13T10:43:36;7.68;;;4.00;;
16822;SDS011;8528;49.976;11.858;2023-10-13T10:46:11;6.30;;;4.00;;
16822;SDS011;8528;49.976;11.858;2023-10-13T10:48:45;5.00;;;4.45;;
16822;SDS011;8528;49.976;11.858;2023-10-13T10:51:13;6.00;;;4.15;;
16822;SDS011;8528;49.976;11.858;2023-10-13T10:53:47;5.78;;;4.32;;
16822;SDS011;8528;49.976;11.858;2023-10-13T10:56:22;7.65;;;4.47;;
16822;SDS011;8528;49.976;11.858;2023-10-13T10:59:06;7.32;;;4.57;;
16822;SDS011;8528;49.976;11.858;2023-10-13T11:01:46;6.88;;;4.00;;
16822;SDS011;8528;49.976;11.858;2023-10-13T11:04:14;5.85;;;3.88;;
16822;SDS011;8528;49.976;11.858;2023-10-13T11:06:45;9.02;;;4.20;;
16822;SDS011;8528;49.976;11.858;2023-10-13T11:09:14;6.30;;;3.92;;
16822;SDS011;8528;49.976;11.858;2023-10-13T11:11:53;7.05;;;3.83;;
16822;SDS011;8528;49.976;11.858;2023-10-13T11:14:23;10.38;;;4.57;;
16822;SDS011;8528;49.976;11.858;2023-10-13T11:16:52;6.63;;;4.05;;
16822;SDS011;8528;49.976;11.858;2023-10-13T11:19:21;11.57;;;4.72;;
16822;SDS011;8528;49.976;11.858;2023-10-13T11:22:14;8.55;;;4.55;;
16822;SDS011;8528;49.976;11.858;2023-10-13T11:25:03;7.30;;;4.28;;
16822;SDS011;8528;49.976;11.858;2023-10-13T11:27:41;6.40;;;4.10;;
16822;SDS011;8528;49.976;11.858;2023-10-13T11:30:17;8.07;;;4.20;;
16822;SDS011;8528;49.976;11.858;2023-10-13T11:33:04;9.35;;;4.13;;
16822;SDS011;8528;49.976;11.858;2023-10-13T11:35:33;6.75;;;4.35;;
16822;SDS011;8528;49.976;11.858;2023-10-13T11:38:26;9.35;;;4.75;;
16822;SDS011;8528;49.976;11.858;2023-10-13T11:41:02;6.40;;;4.07;;
16822;SDS011;8528;49.976;11.858;2023-10-13T11:43:42;5.45;;;3.97;;
16822;SDS011;8528;49.976;11.858;2023-10-13T11:46:17;6.63;;;3.95;;
16822;SDS011;8528;49.976;11.858;2023-10-13T11:49:04;8.20;;;4.03;;
16822;SDS011;8528;49.976;11.858;2023-10-13T11:51:42;5.82;;;4.28;;
16822;SDS011;8528;49.976;11.858;2023-10-13T11:54:16;6.93;;;4.90;;
16822;SDS011;8528;49.976;11.858;2023-10-13T11:56:45;4.35;;;3.78;;
16822;SDS011;8528;49.976;11.858;2023-10-13T11:59:12;8.23;;;4.22;;
16822;SDS011;8528;49.976;11.858;2023-10-13T12:01:50;7.97;;;4.22;;
16822;SDS011;8528;49.976;11.858;2023-10-13T12:04:38;7.90;;;4.47;;
16822;SDS011;8528;49.976;11.858;2023-10-13T12:07:19;6.63;;;3.88;;
16822;SDS011;8528;49.976;11.858;2023-10-13T12:09:51;7.68;;;4.68;;
16822;SDS011;8528;49.976;11.858;2023-10-13T12:12:27;5.13;;;4.17;;
16822;SDS011;8528;49.976;11.858;2023-10-13T12:14:55;9.33;;;4.70;;
16822;SDS011;8528;49.976;11.858;2023-10-13T12:17:23;8.27;;;5.00;;
16822;SDS011;8528;49.976;11.858;2023-10-13T12:19:52;9.60;;;4.43;;
16822;SDS011;8528;49.976;11.858;2023-10-13T12:22:19;7.45;;;3.80;;
16822;SDS011;8528;49.976;11.858;2023-10-13T12:25:03;7.97;;;4.25;;
16822;SDS011;8528;49.976;11.858;2023-10-13T12:27:31;5.68;;;3.80;;
16822;SDS011;8528;49.976;11.858;2023-10-13T12:30:15;8.23;;;4.68;;
16822;SDS011;8528;49.976;11.858;2023-10-13T12:32:51;5.82;;;4.30;;
16822;SDS011;8528;49.976;11.858;2023-10-13T12:35:33;7.10;;;3.90;;
16822;SDS011;8528;49.976;11.858;2023-10-13T12:38:19;7.28;;;4.28;;
16822;SDS011;8528;49.976;11.858;2023-10-13T12:41:05;11.20;;;5.43;;
16822;SDS011;8528;49.976;11.858;2023-10-13T12:44:00;7.38;;;4.30;;
16822;SDS011;8528;49.976;11.858;2023-10-13T12:46:47;31.92;;;22.65;;
16822;SDS011;8528;49.976;11.858;2023-10-13T12:49:33;23.27;;;12.88;;
16822;SDS011;8528;49.976;11.858;2023-10-13T12:52:11;12.60;;;9.35;;
16822;SDS011;8528;49.976;11.858;2023-10-13T12:54:52;7.95;;;5.40;;
16822;SDS011;8528;49.976;11.858;2023-10-13T12:57:32;9.77;;;7.78;;
16822;SDS011;8528;49.976;11.858;2023-10-13T13:00:00;11.52;;;8.05;;
16822;SDS011;8528;49.976;11.858;2023-10-13T13:02:43;8.65;;;5.03;;
16822;SDS011;8528;49.976;11.858;2023-10-13T13:05:10;12.82;;;4.32;;
16822;SDS011;8528;49.976;11.858;2023-10-13T13:07:40;5.90;;;4.13;;
16822;SDS011;8528;49.976;11.858;2023-10-13T13:10:14;8.05;;;4.93;;
16822;SDS011;8528;49.976;11.858;2023-10-13T13:12:41;9.27;;;5.47;;
16822;SDS011;8528;49.976;11.858;2023-10-13T13:15:09;7.73;;;5.03;;
16822;SDS011;8528;49.976;11.858;2023-10-13T13:17:38;9.20;;;6.70;;
16822;SDS011;8528;49.976;11.858;2023-10-13T13:20:06;7.13;;;4.00;;
16822;SDS011;8528;49.976;11.858;2023-10-13T13:22:53;8.03;;;4.43;;
16822;SDS011;8528;49.976;11.858;2023-10-13T13:25:21;7.03;;;4.10;;
16822;SDS011;8528;49.976;11.858;2023-10-13T13:27:57;6.10;;;3.73;;
16822;SDS011;8528;49.976;11.858;2023-10-13T13:30:32;8.97;;;3.60;;
16822;SDS011;8528;49.976;11.858;2023-10-13T13:33:04;6.77;;;4.00;;
16822;SDS011;8528;49.976;11.858;2023-10-13T13:35:39;10.47;;;4.80;;
16822;SDS011;8528;49.976;11.858;2023-10-13T13:38:09;5.57;;;3.93;;
16822;SDS011;8528;49.976;11.858;2023-10-13T13:40:37;4.47;;;3.10;;
16822;SDS011;8528;49.976;11.858;2023-10-13T13:43:04;6.63;;;4.00;;
16822;SDS011;8528;49.976;11.858;2023-10-13T13:45:33;6.03;;;3.93;;
16822;SDS011;8528;49.976;11.858;2023-10-13T13:48:01;6.87;;;4.50;;
16822;SDS011;8528;49.976;11.858;2023-10-13T13:50:37;6.83;;;3.83;;
16822;SDS011;8528;49.976;11.858;2023-10-13T13:53:07;8.47;;;3.97;;
16822;SDS011;8528;49.976;11.858;2023-10-13T13:55:38;8.60;;;3.70;;
16822;SDS011;8528;49.976;11.858;2023-10-13T13:58:06;7.80;;;3.83;;
16822;SDS011;8528;49.976;11.858;2023-10-13T14:00:36;5.53;;;3.63;;
16822;SDS011;8528;49.976;11.858;2023-10-13T14:03:04;5.97;;;3.83;;
16822;SDS011;8528;49.976;11.858;2023-10-13T14:05:52;8.03;;;3.80;;
16822;SDS011;8528;49.976;11.858;2023-10-13T14:08:19;4.60;;;4.00;;
16822;SDS011;8528;49.976;11.858;2023-10-13T14:10:46;7.37;;;4.17;;
16822;SDS011;8528;49.976;11.858;2023-10-13T14:13:32;5.97;;;3.50;;
16822;SDS011;8528;49.976;11.858;2023-10-13T14:16:22;7.80;;;3.83;;
16822;SDS011;8528;49.976;11.858;2023-10-13T14:18:50;9.63;;;3.50;;
16822;SDS011;8528;49.976;11.858;2023-10-13T14:21:17;6.13;;;3.43;;
16822;SDS011;8528;49.976;11.858;2023-10-13T14:23:51;8.07;;;3.90;;
16822;SDS011;8528;49.976;11.858;2023-10-13T14:26:20;8.40;;;4.00;;
16822;SDS011;8528;49.976;11.858;2023-10-13T14:28:48;5.83;;;4.30;;
16822;SDS011;8528;49.976;11.858;2023-10-13T14:31:28;7.27;;;4.80;;
16822;SDS011;8528;49.976;11.858;2023-10-13T14:33:56;10.27;;;7.77;;
16822;SDS011;8528;49.976;11.858;2023-10-13T14:36:23;13.00;;;9.53;;
16822;SDS011;8528;49.976;11.858;2023-10-13T14:38:55;9.47;;;5.33;;
16822;SDS011;8528;49.976;11.858;2023-10-13T14:41:23;26.67;;;17.13;;
16822;SDS011;8528;49.976;11.858;2023-10-13T14:43:50;8.23;;;6.50;;
16822;SDS011;8528;49.976;11.858;2023-10-13T14:46:17;31.73;;;19.37;;
16822;SDS011;8528;49.976;11.858;2023-10-13T14:48:53;21.47;;;10.57;;
16822;SDS011;8528;49.976;11.858;2023-10-13T14:51:20;11.77;;;7.50;;
16822;SDS011;8528;49.976;11.858;2023-10-13T14:53:47;15.07;;;10.37;;
16822;SDS011;8528;49.976;11.858;2023-10-13T14:56:18;14.27;;;9.70;;
16822;SDS011;8528;49.976;11.858;2023-10-13T14:58:46;11.77;;;6.97;;
16822;SDS011;8528;49.976;11.858;2023-10-13T15:01:14;13.23;;;6.30;;
16822;SDS011;8528;49.976;11.858;2023-10-13T15:03:46;18.63;;;11.43;;
16822;SDS011;8528;49.976;11.858;2023-10-13T15:06:18;10.93;;;6.33;;
16822;SDS011;8528;49.976;11.858;2023-10-13T15:08:56;12.37;;;8.63;;
16822;SDS011;8528;49.976;11.858;2023-10-13T15:11:24;11.27;;;5.77;;
16822;SDS011;8528;49.976;11.858;2023-10-13T15:14:15;10.67;;;6.23;;
16822;SDS011;8528;49.976;11.858;2023-10-13T15:16:42;10.47;;;6.33;;
16822;SDS011;8528;49.976;11.858;2023-10-13T15:19:10;14.03;;;9.67;;
16822;SDS011;8528;49.976;11.858;2023-10-13T15:21:39;12.03;;;5.90;;
16822;SDS011;8528;49.976;11.858;2023-10-13T15:24:06;11.90;;;8.37;;
16822;SDS011;8528;49.976;11.858;2023-10-13T15:26:43;12.23;;;6.40;;
16822;SDS011;8528;49.976;11.858;2023-10-13T15:29:19;8.33;;;5.00;;
16822;SDS011;8528;49.976;11.858;2023-10-13T15:31:52;8.87;;;5.13;;
16822;SDS011;8528;49.976;11.858;2023-10-13T15:34:26;7.47;;;5.67;;
16822;SDS011;8528;49.976;11.858;2023-10-13T15:36:56;8.77;;;6.13;;
16822;SDS011;8528;49.976;11.858;2023-10-13T15:39:25;9.13;;;4.53;;
16822;SDS011;8528;49.976;11.858;2023-10-13T15:41:55;10.33;;;4.57;;
16822;SDS011;8528;49.976;11.858;2023-10-13T15:44:25;8.37;;;3.93;;
16822;SDS011;8528;49.976;11.858;2023-10-13T15:46:57;8.20;;;4.50;;
16822;SDS011;8528;49.976;11.858;2023-10-13T15:49:29;5.90;;;3.70;;